TimeCST,TemperatureF,Dew PointF,Humidity,Sea Level PressureIn,VisibilityMPH,Wind Direction,Wind SpeedMPH,Gust SpeedMPH,PrecipitationIn,Events,Conditions,WindDirDegrees,DateUTC
12:53 AM,54.0,34.0,47,30.20,10.0,NW,10.4,-,N/A,,Overcast,320,2012-12-12 06:53:00
1:53 AM,54.0,33.1,45,30.21,10.0,NW,11.5,-,N/A,,Overcast,320,2012-12-12 07:53:00
2:53 AM,53.1,33.1,47,30.20,10.0,NNW,10.4,-,N/A,,Overcast,330,2012-12-12 08:53:00
3:53 AM,51.1,33.1,50,30.20,10.0,NNW,8.1,-,N/A,,Clear,330,2012-12-12 09:53:00
4:53 AM,48.0,32.0,54,30.21,10.0,WNW,6.9,-,N/A,,Clear,300,2012-12-12 10:53:00
5:53 AM,46.9,33.1,59,30.21,10.0,NW,8.1,-,N/A,,Clear,320,2012-12-12 11:53:00
6:53 AM,46.0,32.0,58,30.23,10.0,NW,9.2,-,N/A,,Clear,320,2012-12-12 12:53:00
7:53 AM,48.0,33.1,56,30.25,10.0,NW,9.2,-,N/A,,Clear,320,2012-12-12 13:53:00
8:53 AM,53.1,35.1,50,30.28,10.0,NNW,11.5,-,N/A,,Clear,330,2012-12-12 14:53:00
9:53 AM,61.0,39.9,46,30.29,10.0,NNW,10.4,-,N/A,,Clear,330,2012-12-12 15:53:00
10:53 AM,66.0,45.0,47,30.29,10.0,North,10.4,-,N/A,,Clear,360,2012-12-12 16:53:00
11:53 AM,66.9,46.9,49,30.28,10.0,North,13.8,-,N/A,,Clear,360,2012-12-12 17:53:00
12:53 PM,68.0,45.0,43,30.25,10.0,North,15.0,21.9,N/A,,Clear,10,2012-12-12 18:53:00
1:53 PM,68.0,45.0,43,30.22,10.0,NE,15.0,-,N/A,,Clear,50,2012-12-12 19:53:00
2:53 PM,66.9,46.0,47,30.22,10.0,NE,12.7,20.7,N/A,,Clear,40,2012-12-12 20:53:00
3:53 PM,66.9,46.0,47,30.22,10.0,NNE,11.5,-,N/A,,Clear,30,2012-12-12 21:53:00
4:53 PM,66.0,46.9,50,30.22,9.0,NE,9.2,-,N/A,,Clear,50,2012-12-12 22:53:00
5:53 PM,62.1,48.9,62,30.22,10.0,NE,3.5,-,N/A,,Partly Cloudy,40,2012-12-12 23:53:00
6:53 PM,57.9,50.0,75,30.22,10.0,NE,5.8,-,N/A,,Clear,50,2012-12-13 00:53:00
7:53 PM,59.0,50.0,72,30.23,10.0,ENE,5.8,-,N/A,,Clear,60,2012-12-13 01:53:00
8:53 PM,53.1,48.0,83,30.24,10.0,Calm,Calm,-,N/A,,Clear,0,2012-12-13 02:53:00
9:53 PM,51.1,46.0,83,30.24,10.0,Calm,Calm,-,N/A,,Clear,0,2012-12-13 03:53:00
10:53 PM,54.0,48.0,80,30.24,10.0,Calm,Calm,-,N/A,,Clear,0,2012-12-13 04:53:00
11:53 PM,53.1,46.9,80,30.22,10.0,Calm,Calm,-,N/A,,Mostly Cloudy,0,2012-12-13 05:53:00